Time;durP1;ratioP1;P1;durP2;ratioP2;P2;SDS_P1;SDS_P2;PMS_P1;PMS_P2;Temp;Humidity;BMP_temperature;BMP_pressure;BME280_temperature;BME280_humidity;BME280_pressure;Samples;Min_cycle;Max_cycle;Signal;HPM_P1;HPM_P2
2021/01/25 00:00:07;;;;;;;18.30;12.97;;;;;;;2.25;100.00;99251.34;5059723;28;20183;-72
2021/01/25 00:02:38;;;;;;;15.27;11.97;;;;;;;2.30;100.00;99244.16;5076690;28;20216;-73
2021/01/25 00:05:07;;;;;;;18.53;13.27;;;;;;;2.08;100.00;99245.28;5058573;28;20227;-70
2021/01/25 00:07:33;;;;;;;16.27;12.03;;;;;;;2.18;100.00;99256.13;5059823;28;20171;-72
2021/01/25 00:10:01;;;;;;;20.27;12.80;;;;;;;2.08;100.00;99255.19;5076406;28;20558;-72
2021/01/25 00:12:27;;;;;;;17.83;12.87;;;;;;;2.08;100.00;99256.00;5058703;28;20218;-73
2021/01/25 00:14:53;;;;;;;19.37;13.40;;;;;;;2.18;100.00;99250.75;5093954;28;20174;-71
2021/01/25 00:17:19;;;;;;;20.70;13.70;;;;;;;2.17;100.00;99248.31;5042143;28;20218;-70
2021/01/25 00:19:44;;;;;;;15.90;12.83;;;;;;;2.08;100.00;99250.63;5059349;28;20187;-71
2021/01/25 00:22:10;;;;;;;19.37;13.73;;;;;;;2.04;100.00;99257.56;5092309;28;20222;-71
2021/01/25 00:24:35;;;;;;;17.80;13.30;;;;;;;2.17;100.00;99259.84;5075630;28;20194;-71
2021/01/25 00:27:01;;;;;;;18.40;13.83;;;;;;;2.31;100.00;99255.69;5092302;28;20237;-71
2021/01/25 00:29:27;;;;;;;22.27;14.80;;;;;;;2.16;100.00;99258.25;5042830;28;20194;-71
2021/01/25 00:31:54;;;;;;;20.17;14.37;;;;;;;2.12;100.00;99267.81;5058991;28;20213;-71
2021/01/25 00:34:22;;;;;;;21.17;14.20;;;;;;;2.12;100.00;99256.31;5075994;28;20178;-71
2021/01/25 00:36:50;;;;;;;18.37;13.77;;;;;;;2.17;100.00;99261.72;5058694;28;20226;-71
2021/01/25 00:39:16;;;;;;;19.00;14.03;;;;;;;2.22;100.00;99261.78;5059742;28;20201;-71
2021/01/25 00:41:46;;;;;;;22.07;14.93;;;;;;;2.21;100.00;99260.16;5068758;28;20298;-71
2021/01/25 00:44:12;;;;;;;28.10;18.03;;;;;;;2.19;100.00;99252.34;5058972;28;20285;-71
2021/01/25 00:46:38;;;;;;;29.40;17.97;;;;;;;2.43;100.00;99264.38;5105096;28;20297;-72
2021/01/25 00:49:03;;;;;;;36.10;20.00;;;;;;;2.34;100.00;99256.00;5078904;28;20300;-71
2021/01/25 00:51:29;;;;;;;26.33;17.27;;;;;;;2.24;100.00;99257.78;5077808;28;20221;-71
2021/01/25 00:53:57;;;;;;;24.57;15.63;;;;;;;2.13;100.00;99256.06;5095679;28;20264;-72
2021/01/25 00:56:24;;;;;;;22.43;15.23;;;;;;;2.24;100.00;99257.78;5112846;28;20221;-70
2021/01/25 00:58:49;;;;;;;22.07;15.97;;;;;;;1.95;100.00;99256.38;5078472;28;20262;-71
2021/01/25 01:01:15;;;;;;;26.27;16.73;;;;;;;2.03;100.00;99258.63;5077835;28;20690;-70
2021/01/25 01:03:41;;;;;;;25.03;17.67;;;;;;;1.91;100.00;99260.63;5078680;28;20177;-71
2021/01/25 01:06:07;;;;;;;26.07;16.60;;;;;;;1.99;100.00;99262.84;5108661;28;20206;-70
2021/01/25 01:08:32;;;;;;;44.90;21.23;;;;;;;2.03;100.00;99261.31;5073882;28;20194;-71
2021/01/25 01:10:58;;;;;;;29.50;18.70;;;;;;;2.03;100.00;99261.31;5065066;28;20226;-71
2021/01/25 01:13:24;;;;;;;22.87;16.23;;;;;;;2.00;100.00;99264.47;5079979;28;20228;-71
2021/01/25 01:15:49;;;;;;;23.33;16.50;;;;;;;1.81;100.00;99269.59;5082110;28;20223;-70
2021/01/25 01:18:17;;;;;;;21.73;15.00;;;;;;;1.87;100.00;99274.78;5078144;28;20217;-71
2021/01/25 01:20:47;;;;;;;22.80;15.57;;;;;;;1.85;100.00;99260.00;5062503;28;20813;-71
2021/01/25 01:23:13;;;;;;;24.87;15.87;;;;;;;1.73;100.00;99267.38;5078358;28;20258;-71
2021/01/25 01:25:42;;;;;;;22.13;15.57;;;;;;;1.72;100.00;99263.91;5111915;28;20237;-71
2021/01/25 01:28:13;;;;;;;20.93;15.43;;;;;;;1.76;100.00;99266.84;5078904;28;20722;-71
2021/01/25 01:30:40;;;;;;;21.43;15.43;;;;;;;1.67;100.00;99271.84;5094751;28;20300;-71
2021/01/25 01:33:06;;;;;;;23.97;16.77;;;;;;;1.63;100.00;99262.72;5095549;28;20238;-71
2021/01/25 01:35:34;;;;;;;24.23;16.73;;;;;;;1.68;100.00;99265.44;5094461;28;20266;-71
2021/01/25 01:38:04;;;;;;;25.63;17.33;;;;;;;1.69;100.00;99266.25;5112419;28;20205;-70
2021/01/25 01:40:30;;;;;;;28.07;18.00;;;;;;;1.62;100.00;99265.63;5080127;28;20279;-71
2021/01/25 01:43:00;;;;;;;24.57;17.57;;;;;;;1.70;100.00;99271.34;5084236;28;20209;-71
2021/01/25 01:45:26;;;;;;;28.33;18.83;;;;;;;1.63;100.00;99277.94;5101658;28;20220;-70
2021/01/25 01:47:52;;;;;;;30.30;19.53;;;;;;;1.66;100.00;99277.44;5094653;28;20186;-71
2021/01/25 01:50:20;;;;;;;29.03;20.17;;;;;;;1.65;100.00;99281.19;5100445;28;20573;-71
2021/01/25 01:52:48;;;;;;;28.07;18.43;;;;;;;1.81;100.00;99291.00;5074621;28;20251;-71
2021/01/25 01:55:13;;;;;;;29.60;19.83;;;;;;;1.84;100.00;99283.28;5073061;28;20223;-70
2021/01/25 01:57:41;;;;;;;26.00;18.50;;;;;;;1.95;100.00;99287.72;5060717;28;20802;-71
2021/01/25 02:00:07;;;;;;;29.07;19.90;;;;;;;1.83;100.00;99283.53;5080059;28;20177;-71
2021/01/25 02:02:40;;;;;;;31.30;19.53;;;;;;;2.05;100.00;99283.28;5079208;28;20698;-72
2021/01/25 02:05:08;;;;;;;27.13;19.43;;;;;;;2.05;100.00;99285.97;5095620;28;20222;-71
2021/01/25 02:07:34;;;;;;;30.03;20.87;;;;;;;2.13;100.00;99293.53;5078425;28;20180;-71
2021/01/25 02:10:00;;;;;;;26.37;19.17;;;;;;;2.10;100.00;99291.34;5084953;28;20182;-72
2021/01/25 02:12:25;;;;;;;31.03;21.07;;;;;;;2.14;100.00;99287.09;5057894;28;20590;-71
2021/01/25 02:14:51;;;;;;;28.67;20.13;;;;;;;2.19;100.00;99289.84;5079034;28;20177;-70
2021/01/25 02:17:17;;;;;;;26.47;20.27;;;;;;;1.97;100.00;99291.75;5077397;28;20230;-71
2021/01/25 02:19:48;;;;;;;28.73;20.53;;;;;;;2.06;100.00;99295.59;5077674;28;20250;-71
2021/01/25 02:22:37;;;;;;;27.53;19.20;;;;;;;2.13;100.00;99296.22;5110593;28;20232;-71
2021/01/25 02:25:24;;;;;;;30.20;20.23;;;;;;;2.06;100.00;99303.63;5092952;28;20302;-71
2021/01/25 02:27:50;;;;;;;26.67;19.73;;;;;;;2.11;100.00;99298.34;5110525;28;20570;-71
2021/01/25 02:30:20;;;;;;;26.37;19.63;;;;;;;2.28;100.00;99294.50;5077118;28;20177;-71
2021/01/25 02:32:50;;;;;;;27.97;20.93;;;;;;;2.26;100.00;99289.66;5110563;28;20265;-71
2021/01/25 02:35:16;;;;;;;29.83;20.87;;;;;;;2.23;100.00;99282.91;5060387;28;20224;-71
2021/01/25 02:37:45;;;;;;;27.83;20.63;;;;;;;2.19;100.00;99292.53;5076933;28;20778;-71
2021/01/25 02:40:14;;;;;;;26.17;20.80;;;;;;;2.07;100.00;99291.88;5068800;28;20182;-71
2021/01/25 02:42:42;;;;;;;27.20;20.67;;;;;;;2.19;100.00;99286.38;5073191;28;20238;-71
2021/01/25 02:45:11;;;;;;;29.40;21.53;;;;;;;2.03;100.00;99296.13;5058874;28;20238;-71
2021/01/25 02:47:36;;;;;;;27.47;20.87;;;;;;;2.09;100.00;99289.75;5073477;28;20197;-71
2021/01/25 02:50:04;;;;;;;28.40;21.50;;;;;;;2.03;100.00;99297.97;5073769;28;20219;-71
2021/01/25 02:52:29;;;;;;;29.63;20.33;;;;;;;2.19;100.00;99287.16;5073146;28;20222;-71
2021/01/25 02:54:55;;;;;;;27.67;19.93;;;;;;;2.17;100.00;99293.84;5056305;28;20181;-70
2021/01/25 02:57:20;;;;;;;26.90;20.67;;;;;;;2.19;100.00;99300.56;5089846;28;20221;-71
2021/01/25 02:59:47;;;;;;;27.60;20.60;;;;;;;2.22;100.00;99294.69;5070819;28;20197;-71
2021/01/25 03:02:12;;;;;;;27.00;20.40;;;;;;;2.07;100.00;99294.53;5055834;28;20236;-71
2021/01/25 03:04:40;;;;;;;26.63;20.13;;;;;;;1.94;100.00;99296.78;5056124;28;20178;-71
2021/01/25 03:07:06;;;;;;;30.00;20.60;;;;;;;1.82;100.00;99293.44;5069491;28;20229;-71
2021/01/25 03:09:35;;;;;;;25.50;19.97;;;;;;;1.71;100.00;99288.22;5069027;28;20275;-71
2021/01/25 03:12:04;;;;;;;25.37;19.73;;;;;;;1.59;100.00;99287.53;5034615;28;20705;-71
2021/01/25 03:14:30;;;;;;;26.87;19.03;;;;;;;1.50;100.00;99299.69;5049221;28;20187;-71
2021/01/25 03:16:56;;;;;;;26.87;20.23;;;;;;;1.46;100.00;99303.94;5050201;28;20645;-71
2021/01/25 03:19:21;;;;;;;29.17;21.60;;;;;;;1.44;100.00;99299.91;5036374;28;20206;-71
2021/01/25 03:21:51;;;;;;;27.07;20.27;;;;;;;1.45;100.00;99299.66;5020121;28;20774;-70
2021/01/25 03:24:18;;;;;;;28.43;20.90;;;;;;;1.39;100.00;99306.00;5037412;28;20180;-71
2021/01/25 03:26:44;;;;;;;28.27;20.53;;;;;;;1.32;100.00;99299.19;5052963;28;20750;-71
2021/01/25 03:29:10;;;;;;;29.70;20.37;;;;;;;1.24;100.00;99300.41;5036723;28;20203;-71
2021/01/25 03:31:36;;;;;;;28.73;20.70;;;;;;;1.28;100.00;99309.59;5048484;28;20223;-71
2021/01/25 03:34:05;;;;;;;30.07;21.17;;;;;;;1.38;100.00;99309.72;5057551;28;20309;-72
2021/01/25 03:36:33;;;;;;;28.43;21.43;;;;;;;1.30;100.00;99302.13;5056106;28;20226;-71
2021/01/25 03:38:59;;;;;;;30.63;21.57;;;;;;;1.30;100.00;99304.81;5078255;28;20209;-71
2021/01/25 03:41:24;;;;;;;31.97;21.60;;;;;;;1.36;100.00;99309.16;5075996;28;20364;-71
2021/01/25 03:43:50;;;;;;;30.50;21.63;;;;;;;1.35;100.00;99312.88;5043494;28;20647;-71
2021/01/25 03:46:16;;;;;;;36.57;23.27;;;;;;;1.36;100.00;99303.81;5075622;28;20222;-70
2021/01/25 03:48:41;;;;;;;32.43;22.57;;;;;;;1.21;100.00;99300.91;5043334;28;20624;-71
2021/01/25 03:51:07;;;;;;;29.93;22.07;;;;;;;1.14;100.00;99305.63;5092865;28;20217;-71
2021/01/25 03:53:33;;;;;;;33.60;22.80;;;;;;;1.16;100.00;99302.72;5043008;28;20178;-70
2021/01/25 03:55:58;;;;;;;31.60;22.07;;;;;;;1.09;100.00;99311.97;5068487;28;20702;-71
2021/01/25 03:58:27;;;;;;;36.07;22.83;;;;;;;0.93;100.00;99310.91;5054681;28;20245;-71
2021/01/25 04:00:52;;;;;;;33.13;21.97;;;;;;;0.85;100.00;99311.31;5073606;28;20597;-71
2021/01/25 04:03:21;;;;;;;31.87;21.77;;;;;;;0.76;100.00;99311.97;5073876;28;20187;-71
2021/01/25 04:05:46;;;;;;;28.20;19.83;;;;;;;0.66;100.00;99314.47;5073340;28;20716;-71
2021/01/25 04:08:14;;;;;;;33.47;22.43;;;;;;;0.57;100.00;99321.25;5089364;28;20272;-71
2021/01/25 04:10:45;;;;;;;30.17;20.50;;;;;;;0.54;100.00;99321.72;5071698;28;20222;-71
2021/01/25 04:13:10;;;;;;;28.10;20.70;;;;;;;0.47;100.00;99329.09;5075576;28;20261;-71
2021/01/25 04:15:38;;;;;;;34.33;21.27;;;;;;;0.49;100.00;99318.97;5075132;28;20222;-71
2021/01/25 04:18:07;;;;;;;37.50;21.83;;;;;;;0.55;100.00;99318.03;5059988;28;20225;-71
2021/01/25 04:20:32;;;;;;;33.60;21.63;;;;;;;0.52;100.00;99325.72;5089903;28;20628;-71
2021/01/25 04:22:58;;;;;;;31.37;22.30;;;;;;;0.59;100.00;99321.81;5074561;28;20197;-71
2021/01/25 04:25:24;;;;;;;30.97;22.20;;;;;;;0.64;100.00;99319.25;5058522;28;20214;-70
2021/01/25 04:27:52;;;;;;;36.43;22.60;;;;;;;0.62;100.00;99326.66;5040864;28;20668;-71
2021/01/25 04:30:18;;;;;;;34.43;22.70;;;;;;;0.49;100.00;99331.50;5040987;28;20183;-71
2021/01/25 04:32:46;;;;;;;36.53;22.73;;;;;;;0.54;100.00;99323.59;5075931;28;20205;-71
2021/01/25 04:35:13;;;;;;;32.07;22.80;;;;;;;0.50;100.00;99333.16;5058036;28;20175;-71
2021/01/25 04:37:42;;;;;;;35.03;22.33;;;;;;;0.60;100.00;99328.78;5090069;28;20210;-71
2021/01/25 04:40:09;;;;;;;36.23;22.80;;;;;;;0.62;100.00;99325.88;5058172;28;20194;-71
2021/01/25 04:42:35;;;;;;;37.00;24.67;;;;;;;0.57;100.00;99334.63;5042620;28;20184;-71
2021/01/25 04:45:01;;;;;;;36.30;24.87;;;;;;;0.46;100.00;99340.03;5072783;28;20191;-71
2021/01/25 04:47:27;;;;;;;35.57;23.20;;;;;;;0.45;100.00;99347.19;5047726;28;20236;-71
2021/01/25 04:49:52;;;;;;;34.83;23.43;;;;;;;0.38;100.00;99344.94;5073865;28;20204;-71
2021/01/25 04:52:18;;;;;;;35.53;22.07;;;;;;;0.24;100.00;99343.59;5056485;28;20214;-71
2021/01/25 04:54:47;;;;;;;31.57;22.13;;;;;;;0.21;100.00;99355.56;5090740;28;20194;-71
2021/01/25 04:57:16;;;;;;;33.67;21.70;;;;;;;0.28;100.00;99350.09;5056492;28;20214;-71
2021/01/25 04:59:43;;;;;;;33.00;22.00;;;;;;;0.02;100.00;99342.66;5057583;28;20679;-71
2021/01/25 05:02:12;;;;;;;35.37;21.80;;;;;;;-0.01;100.00;99345.78;5057210;28;20217;-71
2021/01/25 05:04:37;;;;;;;30.77;21.43;;;;;;;0.01;100.00;99354.34;5041147;28;20737;-71
2021/01/25 05:07:06;;;;;;;33.63;23.87;;;;;;;0.07;100.00;99354.22;5073959;28;20217;-71
2021/01/25 05:09:34;;;;;;;35.97;23.73;;;;;;;0.21;100.00;99352.88;5058068;28;20194;-71
2021/01/25 05:12:01;;;;;;;43.77;26.47;;;;;;;0.25;100.00;99361.22;5090269;28;20747;-71
2021/01/25 05:14:41;;;;;;;52.10;30.97;;;;;;;0.26;100.00;99358.34;5074617;28;20222;-71
2021/01/25 05:17:13;;;;;;;52.43;30.80;;;;;;;0.29;100.00;99362.38;5042164;28;20226;-70
2021/01/25 05:19:43;;;;;;;50.73;30.10;;;;;;;0.30;100.00;99359.47;5058778;28;20695;-71
2021/01/25 05:22:19;;;;;;;49.77;28.03;;;;;;;0.38;100.00;99350.25;5041356;28;20267;-71
2021/01/25 05:24:49;;;;;;;45.87;28.60;;;;;;;0.29;100.00;99349.03;5075952;28;20189;-72
2021/01/25 05:27:30;;;;;;;56.37;28.23;;;;;;;0.41;100.00;99351.41;5041386;28;20638;-71
2021/01/25 05:30:11;;;;;;;59.73;37.37;;;;;;;0.40;100.00;99348.97;5059588;28;20226;-71
2021/01/25 05:32:49;;;;;;;58.93;33.53;;;;;;;0.47;100.00;99350.44;5084310;28;20221;-69
2021/01/25 05:35:18;;;;;;;85.33;36.90;;;;;;;0.45;100.00;99363.22;5087939;28;20553;-69
2021/01/25 05:37:53;;;;;;;56.00;29.07;;;;;;;0.40;100.00;99360.47;5082336;28;20206;-70
2021/01/25 05:40:20;;;;;;;76.83;28.10;;;;;;;0.41;100.00;99351.41;5084936;28;20266;-69
2021/01/25 05:42:46;;;;;;;52.27;29.03;;;;;;;0.36;100.00;99357.72;5091458;28;20323;-69
2021/01/25 05:45:12;;;;;;;95.93;29.93;;;;;;;0.48;100.00;99352.06;5040663;28;20179;-70
2021/01/25 05:47:46;;;;;;;70.50;29.90;;;;;;;0.41;100.00;99356.75;5058096;28;20197;-70
2021/01/25 05:50:29;;;;;;;112.80;32.77;;;;;;;0.54;100.00;99353.78;5087218;28;20557;-70
2021/01/25 05:52:58;;;;;;;91.27;31.40;;;;;;;0.45;100.00;99363.22;5051007;28;20628;-70
2021/01/25 05:55:24;;;;;;;70.33;31.10;;;;;;;0.58;100.00;99357.56;5065575;28;20286;-70
2021/01/25 05:57:53;;;;;;;146.53;50.93;;;;;;;0.52;100.00;99365.75;5062449;28;20218;-71
2021/01/25 06:00:19;;;;;;;134.97;40.57;;;;;;;0.64;100.00;99364.66;5067981;28;20297;-71
2021/01/25 06:02:48;;;;;;;105.90;32.53;;;;;;;0.57;100.00;99366.66;5079858;28;20179;-71
2021/01/25 06:05:16;;;;;;;138.37;31.70;;;;;;;0.57;100.00;99369.34;5057258;28;20207;-70
2021/01/25 06:07:43;;;;;;;98.77;31.77;;;;;;;0.62;100.00;99368.59;5058296;28;20698;-70
2021/01/25 06:10:12;;;;;;;96.20;29.70;;;;;;;0.61;100.00;99381.16;5056775;28;20254;-71
2021/01/25 06:12:38;;;;;;;91.50;32.13;;;;;;;0.58;100.00;99380.81;5074208;28;20187;-70
2021/01/25 06:15:06;;;;;;;90.47;32.10;;;;;;;0.48;100.00;99372.63;5073074;28;20190;-70
2021/01/25 06:17:34;;;;;;;83.03;30.63;;;;;;;0.46;100.00;99386.22;5055433;28;20755;-71
2021/01/25 06:20:03;;;;;;;110.90;30.87;;;;;;;0.44;100.00;99382.13;5071954;28;20208;-71
2021/01/25 06:22:29;;;;;;;91.63;31.23;;;;;;;0.41;100.00;99391.44;5038454;28;20222;-70
2021/01/25 06:24:54;;;;;;;96.03;31.00;;;;;;;0.34;100.00;99389.16;5083059;28;20265;-70
2021/01/25 06:27:22;;;;;;;109.87;31.80;;;;;;;0.36;100.00;99395.88;5037055;28;20206;-71
2021/01/25 06:29:50;;;;;;;127.53;32.27;;;;;;;0.44;100.00;99399.00;5097762;28;20710;-71
2021/01/25 06:32:16;;;;;;;122.77;30.53;;;;;;;0.52;100.00;99405.81;5069763;28;20585;-71
2021/01/25 06:34:41;;;;;;;84.27;29.63;;;;;;;0.48;100.00;99408.16;5050339;28;20199;-70
2021/01/25 06:37:13;;;;;;;65.20;29.60;;;;;;;0.45;100.00;99411.28;5035668;28;20223;-70
2021/01/25 06:39:45;;;;;;;104.53;30.63;;;;;;;0.50;100.00;99422.06;5064493;28;20589;-71
2021/01/25 06:42:15;;;;;;;88.97;28.73;;;;;;;0.43;100.00;99416.03;5062065;28;20222;-71
2021/01/25 06:44:41;;;;;;;65.67;28.90;;;;;;;0.42;100.00;99421.63;5071253;28;20182;-71
2021/01/25 06:47:09;;;;;;;65.87;28.20;;;;;;;0.39;100.00;99422.13;5104974;28;20270;-70
2021/01/25 06:49:37;;;;;;;90.50;29.03;;;;;;;0.37;100.00;99429.56;5108551;28;20206;-71
2021/01/25 06:52:08;;;;;;;66.43;28.17;;;;;;;0.37;100.00;99431.38;5058182;28;20221;-71
2021/01/25 06:54:36;;;;;;;51.37;28.03;;;;;;;0.39;100.00;99433.59;5092160;28;20177;-71
2021/01/25 06:57:07;;;;;;;77.17;29.20;;;;;;;0.33;100.00;99432.91;5072660;28;20220;-71
2021/01/25 06:59:33;;;;;;;80.07;27.60;;;;;;;0.38;100.00;99435.69;5092776;28;20213;-71
2021/01/25 07:01:59;;;;;;;62.07;28.83;;;;;;;0.39;100.00;99443.47;5059426;28;20217;-71
2021/01/25 07:04:25;;;;;;;85.53;29.83;;;;;;;0.27;100.00;99447.22;5093010;28;20177;-71
2021/01/25 07:06:53;;;;;;;144.93;56.93;;;;;;;0.34;100.00;99450.56;5109651;28;20220;-71
2021/01/25 07:09:29;;;;;;;85.80;33.43;;;;;;;0.52;100.00;99444.00;5102067;28;20201;-71
2021/01/25 07:11:59;;;;;;;103.77;52.17;;;;;;;0.29;100.00;99455.78;5084313;28;20747;-71
2021/01/25 07:14:31;;;;;;;81.20;33.97;;;;;;;0.34;100.00;99455.91;5093306;28;20181;-71
2021/01/25 07:16:59;;;;;;;67.77;31.47;;;;;;;0.34;100.00;99466.59;5093041;28;20224;-71
2021/01/25 07:19:25;;;;;;;56.17;31.47;;;;;;;0.45;100.00;99470.00;5093928;28;20190;-71
2021/01/25 07:21:54;;;;;;;69.17;30.17;;;;;;;0.50;100.00;99464.78;5059491;28;20644;-71
2021/01/25 07:24:24;;;;;;;58.03;30.27;;;;;;;0.46;100.00;99471.66;5076198;28;20620;-70
2021/01/25 07:26:53;;;;;;;74.23;36.30;;;;;;;0.49;100.00;99470.34;5076290;28;20710;-71
2021/01/25 07:29:19;;;;;;;95.17;33.73;;;;;;;0.56;100.00;99474.50;5093206;28;20674;-71
2021/01/25 07:31:45;;;;;;;60.67;31.20;;;;;;;0.54;100.00;99489.97;5092562;28;20309;-71
2021/01/25 07:34:11;;;;;;;72.20;30.63;;;;;;;0.62;100.00;99478.91;5076104;28;20182;-71
2021/01/25 07:36:39;;;;;;;76.13;32.43;;;;;;;0.58;100.00;99476.94;5075713;28;20256;-72
2021/01/25 07:39:14;;;;;;;71.27;31.40;;;;;;;0.39;100.00;99476.31;5073031;28;20210;-71
2021/01/25 07:41:42;;;;;;;71.43;32.80;;;;;;;0.61;100.00;99479.97;5084835;28;20256;-71
2021/01/25 07:44:08;;;;;;;84.03;32.97;;;;;;;0.60;100.00;99472.19;5109852;28;20185;-73
2021/01/25 07:46:34;;;;;;;103.17;32.70;;;;;;;0.66;100.00;99482.75;5075556;28;20744;-71
2021/01/25 07:49:02;;;;;;;69.90;31.13;;;;;;;0.55;100.00;99480.91;5076283;28;20197;-71
2021/01/25 07:51:29;;;;;;;99.60;32.50;;;;;;;0.58;100.00;99484.97;5109191;28;20256;-71
2021/01/25 07:53:55;;;;;;;62.27;29.27;;;;;;;0.52;100.00;99499.25;5109981;28;20185;-72
2021/01/25 07:56:25;;;;;;;71.30;31.57;;;;;;;0.58;100.00;99503.66;5058449;28;20225;-71
2021/01/25 07:59:03;;;;;;;61.67;31.57;;;;;;;0.50;100.00;99494.16;5093420;28;20216;-71
2021/01/25 08:01:30;;;;;;;183.30;57.27;;;;;;;0.55;100.00;99502.28;5094146;28;20213;-70
2021/01/25 08:04:05;;;;;;;138.00;43.87;;;;;;;0.60;100.00;99499.69;5076675;28;20177;-70
2021/01/25 08:06:34;;;;;;;107.27;39.50;;;;;;;0.70;100.00;99507.91;5080477;28;20225;-71
2021/01/25 08:09:07;;;;;;;67.97;31.63;;;;;;;0.63;100.00;99519.78;5090455;28;20218;-71
2021/01/25 08:11:35;;;;;;;56.97;30.77;;;;;;;0.60;100.00;99521.06;5088255;28;20220;-71
2021/01/25 08:14:25;;;;;;;62.03;29.50;;;;;;;0.58;100.00;99523.16;5114498;28;20230;-71
2021/01/25 08:17:04;;;;;;;51.10;28.70;;;;;;;0.73;100.00;99526.13;5098112;28;20290;-71
2021/01/25 08:19:48;;;;;;;58.10;28.97;;;;;;;0.72;100.00;99524.50;5096839;28;20201;-74
2021/01/25 08:22:25;;;;;;;75.53;27.93;;;;;;;0.87;100.00;99519.47;5063248;28;20220;-72
2021/01/25 08:24:58;;;;;;;66.37;27.43;;;;;;;0.80;100.00;99524.94;5113142;28;20177;-71
2021/01/25 08:27:24;;;;;;;63.17;27.93;;;;;;;0.67;100.00;99531.63;5078993;28;20304;-71
2021/01/25 08:29:56;;;;;;;102.00;28.23;;;;;;;0.68;100.00;99534.06;5079266;28;20288;-72
2021/01/25 08:32:24;;;;;;;61.17;26.90;;;;;;;0.97;100.00;99538.34;5062514;28;20274;-71
2021/01/25 08:34:59;;;;;;;60.23;26.93;;;;;;;0.91;100.00;99532.09;5096392;28;20189;-71
2021/01/25 08:37:30;;;;;;;51.47;28.10;;;;;;;0.97;100.00;99538.34;5095168;28;20227;-71
2021/01/25 08:39:55;;;;;;;65.03;27.37;;;;;;;1.04;100.00;99539.03;5103969;28;20223;-70
2021/01/25 08:42:24;;;;;;;53.20;31.07;;;;;;;0.96;100.00;99537.56;5104215;28;20217;-71
2021/01/25 08:44:54;;;;;;;51.57;28.07;;;;;;;1.09;100.00;99537.25;5079252;28;20277;-70
2021/01/25 08:47:30;;;;;;;46.90;28.50;;;;;;;1.15;100.00;99542.47;5097268;28;20218;-70
2021/01/25 08:49:56;;;;;;;69.70;29.57;;;;;;;1.27;100.00;99545.09;5062780;28;20742;-69
2021/01/25 08:52:29;;;;;;;47.23;29.33;;;;;;;1.17;100.00;99542.22;5058559;28;20284;-70
2021/01/25 08:55:08;;;;;;;41.50;27.67;;;;;;;1.18;100.00;99550.00;5095411;28;20190;-70
2021/01/25 08:57:43;;;;;;;55.53;29.37;;;;;;;1.22;100.00;99547.66;5078795;28;20217;-70
2021/01/25 09:00:12;;;;;;;43.90;28.07;;;;;;;1.34;100.00;99551.91;5112519;28;20197;-71
2021/01/25 09:02:37;;;;;;;48.47;28.33;;;;;;;1.37;100.00;99556.75;5111786;28;20213;-71
2021/01/25 09:05:03;;;;;;;57.53;30.00;;;;;;;1.35;100.00;99558.06;5094567;28;20219;-70
2021/01/25 09:07:29;;;;;;;53.33;31.23;;;;;;;1.19;100.00;99566.84;5095451;28;20169;-70
2021/01/25 09:09:59;;;;;;;55.30;31.03;;;;;;;1.25;100.00;99568.59;5090478;28;20186;-70
2021/01/25 09:12:25;;;;;;;52.60;30.57;;;;;;;1.11;100.00;99563.75;5104768;28;20306;-71
2021/01/25 09:14:51;;;;;;;50.87;29.33;;;;;;;1.27;100.00;99569.97;5077520;28;20181;-71
2021/01/25 09:17:16;;;;;;;53.33;31.50;;;;;;;1.38;100.00;99566.41;5074975;28;20592;-71
2021/01/25 09:19:44;;;;;;;53.00;29.97;;;;;;;1.45;100.00;99575.09;5091774;28;20579;-70
2021/01/25 09:22:11;;;;;;;51.37;30.83;;;;;;;1.46;100.00;99576.72;5108612;28;20221;-70
2021/01/25 09:24:38;;;;;;;49.30;29.90;;;;;;;1.45;100.00;99574.28;5077941;28;20182;-71
2021/01/25 09:27:04;;;;;;;45.87;28.80;;;;;;;1.50;100.00;99572.50;5112133;28;20209;-71
2021/01/25 09:29:30;;;;;;;46.90;28.87;;;;;;;1.45;100.00;99580.47;5112777;28;20205;-71
2021/01/25 09:31:58;;;;;;;47.03;29.07;;;;;;;1.61;100.00;99574.31;5101469;28;20267;-70
2021/01/25 09:34:25;;;;;;;46.83;28.63;;;;;;;1.72;100.00;99586.81;5071038;28;20178;-70
2021/01/25 09:36:52;;;;;;;47.03;29.03;;;;;;;1.59;100.00;99581.75;5112116;28;20217;-71
2021/01/25 09:39:18;;;;;;;45.27;29.70;;;;;;;1.71;100.00;99585.19;5087491;28;20192;-70
2021/01/25 09:41:46;;;;;;;60.47;35.57;;;;;;;1.79;100.00;99598.16;5053334;28;20257;-71
2021/01/25 09:44:15;;;;;;;67.53;37.30;;;;;;;1.70;100.00;99595.06;5111174;28;20255;-71
2021/01/25 09:46:42;;;;;;;64.43;36.53;;;;;;;1.89;100.00;99603.69;5077834;28;20214;-70
2021/01/25 09:49:08;;;;;;;50.63;31.63;;;;;;;1.83;100.00;99600.09;5095392;28;20194;-70
2021/01/25 09:51:43;;;;;;;48.27;30.23;;;;;;;1.91;100.00;99603.22;5095352;28;20225;-71
2021/01/25 09:54:10;;;;;;;66.17;36.07;;;;;;;1.74;100.00;99608.78;5080781;28;20526;-71
2021/01/25 09:56:36;;;;;;;54.57;34.27;;;;;;;1.85;100.00;99606.06;5112350;28;20228;-71
2021/01/25 09:59:02;;;;;;;42.27;28.47;;;;;;;1.91;100.00;99611.22;5079221;28;20213;-71
2021/01/25 10:01:28;;;;;;;42.07;28.60;;;;;;;2.00;100.00;99622.38;5113667;28;20221;-71
2021/01/25 10:03:56;;;;;;;41.83;28.00;;;;;;;1.95;100.00;99630.31;5076901;28;20601;-71
2021/01/25 10:06:21;;;;;;;45.13;27.63;;;;;;;1.80;100.00;99626.56;5072705;28;20222;-71
2021/01/25 10:08:47;;;;;;;41.63;28.10;;;;;;;1.68;100.00;99623.94;5038338;28;20214;-70
2021/01/25 10:11:13;;;;;;;41.90;28.57;;;;;;;1.75;100.00;99629.94;5051356;28;20688;-70
2021/01/25 10:13:39;;;;;;;40.47;27.50;;;;;;;2.02;100.00;99628.28;5038306;28;20209;-70
2021/01/25 10:16:04;;;;;;;46.53;30.73;;;;;;;1.99;100.00;99632.25;5025531;28;20250;-71
2021/01/25 10:18:30;;;;;;;44.87;29.57;;;;;;;2.30;100.00;99634.34;5037508;28;20657;-70
2021/01/25 10:20:58;;;;;;;47.33;30.53;;;;;;;2.37;100.00;99629.66;5043397;28;20295;-71
2021/01/25 10:23:25;;;;;;;50.00;32.63;;;;;;;2.34;100.00;99636.31;5090578;28;20269;-70
2021/01/25 10:25:51;;;;;;;43.43;30.73;;;;;;;2.28;100.00;99635.66;5055929;28;20301;-70
2021/01/25 10:28:18;;;;;;;42.60;28.87;;;;;;;2.14;100.00;99637.84;5090153;28;20773;-70
2021/01/25 10:30:45;;;;;;;44.27;30.23;;;;;;;2.08;100.00;99641.50;5089715;28;20229;-70
2021/01/25 10:33:14;;;;;;;41.53;28.50;;;;;;;2.35;100.00;99642.47;5073536;28;20192;-71
2021/01/25 10:35:39;;;;;;;45.07;31.50;;;;;;;2.44;100.00;99643.69;5055978;28;20596;-70
2021/01/25 10:38:07;;;;;;;44.87;30.57;;;;;;;2.75;100.00;99650.06;5057371;28;20670;-71
2021/01/25 10:40:35;;;;;;;45.13;30.97;;;;;;;3.10;100.00;99642.50;5085622;28;20213;-70
2021/01/25 10:43:01;;;;;;;45.93;31.70;;;;;;;3.24;100.00;99651.78;5057098;28;20174;-71
2021/01/25 10:45:29;;;;;;;45.13;29.50;;;;;;;3.40;100.00;99653.59;5089211;28;20283;-72
2021/01/25 10:47:54;;;;;;;43.07;29.17;;;;;;;3.40;100.00;99658.94;5073081;28;20198;-71
2021/01/25 10:50:21;;;;;;;39.27;28.43;;;;;;;3.36;100.00;99658.63;5089685;28;20535;-71
2021/01/25 10:52:47;;;;;;;38.77;27.37;;;;;;;3.28;100.00;99666.31;5073617;28;20178;-71
2021/01/25 10:55:16;;;;;;;34.13;25.63;;;;;;;3.41;100.00;99671.28;5056493;28;20190;-68
2021/01/25 10:57:42;;;;;;;36.30;26.40;;;;;;;3.65;100.00;99668.09;5090366;28;20214;-71
2021/01/25 11:00:11;;;;;;;37.07;26.40;;;;;;;3.53;100.00;99670.09;5056749;28;20178;-71
2021/01/25 11:02:39;;;;;;;35.90;25.70;;;;;;;3.42;100.00;99673.72;5089865;28;20232;-70
2021/01/25 11:05:09;;;;;;;35.60;26.37;;;;;;;3.44;100.00;99668.91;5088824;28;20217;-70
2021/01/25 11:07:39;;;;;;;33.17;25.87;;;;;;;3.49;100.00;99669.78;5073590;28;20201;-70
2021/01/25 11:10:06;;;;;;;32.50;25.03;;;;;;;3.19;100.00;99673.19;5057426;28;20178;-70
2021/01/25 11:12:31;;;;;;;34.03;24.27;;;;;;;3.19;100.00;99678.56;5091141;28;20293;-70
2021/01/25 11:14:57;;;;;;;32.87;25.30;;;;;;;3.18;100.00;99679.59;5056431;28;20229;-70
2021/01/25 11:17:26;;;;;;;31.73;24.97;;;;;;;3.36;100.00;99681.97;5056810;28;20276;-70
2021/01/25 11:19:52;;;;;;;32.03;24.37;;;;;;;3.40;100.00;99681.22;5073948;28;20202;-70